sensor_id;sensor_type;location;lat;lon;timestamp;temperature;humidity
33368;DHT22;19724;51.114;13.906;2023-02-28T00:00:34;0.30;99.90
33368;DHT22;19724;51.114;13.906;2023-02-28T00:03:00;0.40;99.90
33368;DHT22;19724;51.114;13.906;2023-02-28T00:05:26;0.30;99.90
33368;DHT22;19724;51.114;13.906;2023-02-28T00:07:52;0.20;99.90
33368;DHT22;19724;51.114;13.906;2023-02-28T00:10:24;0.40;99.90
33368;DHT22;19724;51.114;13.906;2023-02-28T00:12:51;0.30;99.90
33368;DHT22;19724;51.114;13.906;2023-02-28T00:15:17;0.30;99.90
33368;DHT22;19724;51.114;13.906;2023-02-28T00:17:43;0.20;99.90
33368;DHT22;19724;51.114;13.906;2023-02-28T00:20:10;0.20;99.90
33368;DHT22;19724;51.114;13.906;2023-02-28T00:22:43;0.20;99.90
33368;DHT22;19724;51.114;13.906;2023-02-28T00:25:10;0.20;99.90
33368;DHT22;19724;51.114;13.906;2023-02-28T00:27:37;0.10;99.90
33368;DHT22;19724;51.114;13.906;2023-02-28T00:30:04;0.20;99.90
33368;DHT22;19724;51.114;13.906;2023-02-28T00:32:30;0.20;99.90
33368;DHT22;19724;51.114;13.906;2023-02-28T00:34:56;0.10;99.90
33368;DHT22;19724;51.114;13.906;2023-02-28T00:37:21;0.10;99.90
33368;DHT22;19724;51.114;13.906;2023-02-28T00:39:47;0.10;99.90
33368;DHT22;19724;51.114;13.906;2023-02-28T00:42:12;0.10;99.90
33368;DHT22;19724;51.114;13.906;2023-02-28T00:44:38;0.20;99.90
33368;DHT22;19724;51.114;13.906;2023-02-28T00:47:03;0.00;99.90
33368;DHT22;19724;51.114;13.906;2023-02-28T00:49:29;0.00;99.90
33368;DHT22;19724;51.114;13.906;2023-02-28T00:51:55;-0.10;99.90
33368;DHT22;19724;51.114;13.906;2023-02-28T00:54:21;0.00;99.90
33368;DHT22;19724;51.114;13.906;2023-02-28T00:56:47;-0.10;99.90
33368;DHT22;19724;51.114;13.906;2023-02-28T00:59:14;-0.10;99.90
33368;DHT22;19724;51.114;13.906;2023-02-28T01:01:40;-0.10;99.90
33368;DHT22;19724;51.114;13.906;2023-02-28T01:04:05;-0.20;99.90
33368;DHT22;19724;51.114;13.906;2023-02-28T01:06:31;-0.20;99.90
33368;DHT22;19724;51.114;13.906;2023-02-28T01:08:57;-0.10;99.90
33368;DHT22;19724;51.114;13.906;2023-02-28T01:11:22;-0.10;99.90
33368;DHT22;19724;51.114;13.906;2023-02-28T01:13:48;0.00;99.90
33368;DHT22;19724;51.114;13.906;2023-02-28T01:16:14;-0.10;99.90
33368;DHT22;19724;51.114;13.906;2023-02-28T01:18:40;-0.20;99.90
33368;DHT22;19724;51.114;13.906;2023-02-28T01:21:10;0.00;99.90
33368;DHT22;19724;51.114;13.906;2023-02-28T01:23:36;-0.10;99.90
33368;DHT22;19724;51.114;13.906;2023-02-28T01:26:11;-0.20;99.90
33368;DHT22;19724;51.114;13.906;2023-02-28T01:28:36;-0.10;99.90
33368;DHT22;19724;51.114;13.906;2023-02-28T01:31:02;-0.20;99.90
33368;DHT22;19724;51.114;13.906;2023-02-28T01:33:28;-0.20;99.90
33368;DHT22;19724;51.114;13.906;2023-02-28T01:36:11;-0.30;99.90
33368;DHT22;19724;51.114;13.906;2023-02-28T01:38:38;-0.30;99.90
33368;DHT22;19724;51.114;13.906;2023-02-28T01:41:05;-0.40;99.90
33368;DHT22;19724;51.114;13.906;2023-02-28T01:43:52;-0.40;99.90
33368;DHT22;19724;51.114;13.906;2023-02-28T01:46:17;-0.50;99.90
33368;DHT22;19724;51.114;13.906;2023-02-28T01:48:54;-0.50;99.90
33368;DHT22;19724;51.114;13.906;2023-02-28T01:51:44;-0.60;99.90
33368;DHT22;19724;51.114;13.906;2023-02-28T01:54:19;-0.70;99.90
33368;DHT22;19724;51.114;13.906;2023-02-28T01:57:34;-0.80;99.90
33368;DHT22;19724;51.114;13.906;2023-02-28T01:59:45;-0.90;99.90
33368;DHT22;19724;51.114;13.906;2023-02-28T02:02:12;-1.00;99.90
33368;DHT22;19724;51.114;13.906;2023-02-28T02:05:01;-1.00;99.90
33368;DHT22;19724;51.114;13.906;2023-02-28T02:07:31;-1.10;99.90
33368;DHT22;19724;51.114;13.906;2023-02-28T02:11:02;-1.00;99.90
33368;DHT22;19724;51.114;13.906;2023-02-28T02:19:15;-1.30;99.90
33368;DHT22;19724;51.114;13.906;2023-02-28T02:22:13;-1.30;99.90
33368;DHT22;19724;51.114;13.906;2023-02-28T02:30:57;-1.50;99.90
33368;DHT22;19724;51.114;13.906;2023-02-28T02:33:41;-1.50;99.90
33368;DHT22;19724;51.114;13.906;2023-02-28T02:36:38;-1.60;99.90
33368;DHT22;19724;51.114;13.906;2023-02-28T02:39:14;-1.60;99.90
33368;DHT22;19724;51.114;13.906;2023-02-28T02:41:51;-1.70;99.90
33368;DHT22;19724;51.114;13.906;2023-02-28T02:44:35;-1.80;99.90
33368;DHT22;19724;51.114;13.906;2023-02-28T02:47:15;-1.80;99.90
33368;DHT22;19724;51.114;13.906;2023-02-28T02:49:46;-1.90;99.90
33368;DHT22;19724;51.114;13.906;2023-02-28T02:52:16;-1.80;99.90
33368;DHT22;19724;51.114;13.906;2023-02-28T02:54:45;-2.00;99.90
33368;DHT22;19724;51.114;13.906;2023-02-28T02:57:16;-2.10;99.90
33368;DHT22;19724;51.114;13.906;2023-02-28T02:59:43;-2.10;99.90
33368;DHT22;19724;51.114;13.906;2023-02-28T03:02:12;-2.30;99.90
33368;DHT22;19724;51.114;13.906;2023-02-28T03:04:43;-2.30;99.90
33368;DHT22;19724;51.114;13.906;2023-02-28T03:07:10;-2.40;99.90
33368;DHT22;19724;51.114;13.906;2023-02-28T03:09:35;-2.50;99.90
33368;DHT22;19724;51.114;13.906;2023-02-28T03:12:01;-2.60;99.90
33368;DHT22;19724;51.114;13.906;2023-02-28T03:15:25;-2.70;99.90
33368;DHT22;19724;51.114;13.906;2023-02-28T03:17:51;-2.70;99.90
33368;DHT22;19724;51.114;13.906;2023-02-28T03:20:40;-2.70;99.90
33368;DHT22;19724;51.114;13.906;2023-02-28T03:23:19;-2.90;99.90
33368;DHT22;19724;51.114;13.906;2023-02-28T03:26:06;-2.90;99.90
33368;DHT22;19724;51.114;13.906;2023-02-28T03:28:41;-3.00;99.90
33368;DHT22;19724;51.114;13.906;2023-02-28T03:31:33;-3.00;99.90
33368;DHT22;19724;51.114;13.906;2023-02-28T03:34:12;-3.10;99.90
33368;DHT22;19724;51.114;13.906;2023-02-28T03:36:45;-3.20;99.90
33368;DHT22;19724;51.114;13.906;2023-02-28T03:39:20;-3.30;99.90
33368;DHT22;19724;51.114;13.906;2023-02-28T03:41:57;-3.20;99.90
33368;DHT22;19724;51.114;13.906;2023-02-28T03:44:30;-3.20;99.90
33368;DHT22;19724;51.114;13.906;2023-02-28T03:47:05;-3.30;99.90
33368;DHT22;19724;51.114;13.906;2023-02-28T03:49:40;-3.30;99.90
33368;DHT22;19724;51.114;13.906;2023-02-28T03:52:11;-3.30;99.90
33368;DHT22;19724;51.114;13.906;2023-02-28T03:54:48;-3.40;99.90
33368;DHT22;19724;51.114;13.906;2023-02-28T04:00:55;-3.50;99.90
33368;DHT22;19724;51.114;13.906;2023-02-28T04:02:48;-3.40;99.90
33368;DHT22;19724;51.114;13.906;2023-02-28T04:05:19;-3.50;99.90
33368;DHT22;19724;51.114;13.906;2023-02-28T04:07:44;-3.60;99.90
33368;DHT22;19724;51.114;13.906;2023-02-28T04:10:11;-3.60;99.90
33368;DHT22;19724;51.114;13.906;2023-02-28T04:12:37;-3.60;99.90
33368;DHT22;19724;51.114;13.906;2023-02-28T04:15:02;-3.60;99.90
33368;DHT22;19724;51.114;13.906;2023-02-28T04:17:28;-3.60;99.90
33368;DHT22;19724;51.114;13.906;2023-02-28T04:19:53;-3.50;99.90
33368;DHT22;19724;51.114;13.906;2023-02-28T04:22:22;-3.70;99.90
33368;DHT22;19724;51.114;13.906;2023-02-28T04:24:51;-3.70;99.90
33368;DHT22;19724;51.114;13.906;2023-02-28T04:27:16;-3.70;99.90
33368;DHT22;19724;51.114;13.906;2023-02-28T04:29:42;-3.70;99.90
33368;DHT22;19724;51.114;13.906;2023-02-28T04:32:10;-3.70;99.90
33368;DHT22;19724;51.114;13.906;2023-02-28T04:34:35;-3.70;99.90
33368;DHT22;19724;51.114;13.906;2023-02-28T04:37:02;-3.80;99.90
33368;DHT22;19724;51.114;13.906;2023-02-28T04:39:28;-3.80;99.90
33368;DHT22;19724;51.114;13.906;2023-02-28T04:41:54;-3.80;99.90
33368;DHT22;19724;51.114;13.906;2023-02-28T04:44:20;-3.90;99.90
33368;DHT22;19724;51.114;13.906;2023-02-28T04:46:48;-3.90;99.90
33368;DHT22;19724;51.114;13.906;2023-02-28T04:49:13;-4.00;99.90
33368;DHT22;19724;51.114;13.906;2023-02-28T04:51:39;-3.90;99.90
33368;DHT22;19724;51.114;13.906;2023-02-28T04:54:05;-4.10;99.90
33368;DHT22;19724;51.114;13.906;2023-02-28T04:56:31;-4.00;99.90
33368;DHT22;19724;51.114;13.906;2023-02-28T04:58:57;-4.10;99.90
33368;DHT22;19724;51.114;13.906;2023-02-28T05:01:28;-4.10;99.90
33368;DHT22;19724;51.114;13.906;2023-02-28T05:03:56;-4.10;99.90
33368;DHT22;19724;51.114;13.906;2023-02-28T05:06:23;-4.10;99.90
33368;DHT22;19724;51.114;13.906;2023-02-28T05:08:49;-4.10;99.90
33368;DHT22;19724;51.114;13.906;2023-02-28T05:11:24;-4.20;99.90
33368;DHT22;19724;51.114;13.906;2023-02-28T05:13:51;-4.20;99.90
33368;DHT22;19724;51.114;13.906;2023-02-28T05:16:18;-4.20;99.90
33368;DHT22;19724;51.114;13.906;2023-02-28T05:18:44;-4.20;99.90
33368;DHT22;19724;51.114;13.906;2023-02-28T05:21:23;-4.20;99.90
33368;DHT22;19724;51.114;13.906;2023-02-28T05:23:49;-4.30;99.90
33368;DHT22;19724;51.114;13.906;2023-02-28T05:26:15;-4.30;99.90
33368;DHT22;19724;51.114;13.906;2023-02-28T05:28:40;-4.30;99.90
33368;DHT22;19724;51.114;13.906;2023-02-28T05:31:07;-4.40;99.90
33368;DHT22;19724;51.114;13.906;2023-02-28T05:33:33;-4.40;99.90
33368;DHT22;19724;51.114;13.906;2023-02-28T05:35:58;-4.30;99.90
33368;DHT22;19724;51.114;13.906;2023-02-28T05:38:23;-4.40;99.90
33368;DHT22;19724;51.114;13.906;2023-02-28T05:40:49;-4.40;99.90
33368;DHT22;19724;51.114;13.906;2023-02-28T05:43:14;-4.40;99.90
33368;DHT22;19724;51.114;13.906;2023-02-28T05:45:40;-4.40;99.90
33368;DHT22;19724;51.114;13.906;2023-02-28T05:48:05;-4.50;99.90
33368;DHT22;19724;51.114;13.906;2023-02-28T05:50:31;-4.50;99.90
33368;DHT22;19724;51.114;13.906;2023-02-28T05:52:56;-4.50;99.90
33368;DHT22;19724;51.114;13.906;2023-02-28T05:55:22;-4.40;99.90
33368;DHT22;19724;51.114;13.906;2023-02-28T05:57:48;-4.40;99.90
33368;DHT22;19724;51.114;13.906;2023-02-28T06:00:13;-4.50;99.90
33368;DHT22;19724;51.114;13.906;2023-02-28T06:02:41;-4.50;99.90
33368;DHT22;19724;51.114;13.906;2023-02-28T06:05:13;-4.50;99.90
33368;DHT22;19724;51.114;13.906;2023-02-28T06:07:39;-4.50;99.90
33368;DHT22;19724;51.114;13.906;2023-02-28T06:10:05;-4.50;99.90
33368;DHT22;19724;51.114;13.906;2023-02-28T06:12:31;-4.50;99.90
33368;DHT22;19724;51.114;13.906;2023-02-28T06:14:56;-4.50;99.90
33368;DHT22;19724;51.114;13.906;2023-02-28T06:17:22;-4.40;99.90
33368;DHT22;19724;51.114;13.906;2023-02-28T06:19:47;-4.50;99.90
33368;DHT22;19724;51.114;13.906;2023-02-28T06:22:13;-4.40;99.90
33368;DHT22;19724;51.114;13.906;2023-02-28T06:24:39;-4.40;99.90
33368;DHT22;19724;51.114;13.906;2023-02-28T06:27:04;-4.40;99.90
33368;DHT22;19724;51.114;13.906;2023-02-28T06:29:31;-4.40;99.90
33368;DHT22;19724;51.114;13.906;2023-02-28T06:31:57;-4.50;99.90
33368;DHT22;19724;51.114;13.906;2023-02-28T06:34:23;-4.40;99.90
33368;DHT22;19724;51.114;13.906;2023-02-28T06:36:50;-4.50;99.90
33368;DHT22;19724;51.114;13.906;2023-02-28T06:39:16;-4.40;99.90
33368;DHT22;19724;51.114;13.906;2023-02-28T06:41:41;-4.30;99.90
33368;DHT22;19724;51.114;13.906;2023-02-28T06:44:12;-4.20;99.90
33368;DHT22;19724;51.114;13.906;2023-02-28T06:46:40;-4.00;99.90
33368;DHT22;19724;51.114;13.906;2023-02-28T06:49:07;-4.10;99.90
33368;DHT22;19724;51.114;13.906;2023-02-28T06:51:34;-3.90;99.90
33368;DHT22;19724;51.114;13.906;2023-02-28T06:54:01;-3.80;99.90
33368;DHT22;19724;51.114;13.906;2023-02-28T06:56:26;-3.80;99.90
33368;DHT22;19724;51.114;13.906;2023-02-28T06:58:51;-3.70;99.90
33368;DHT22;19724;51.114;13.906;2023-02-28T07:01:21;-3.60;99.90
33368;DHT22;19724;51.114;13.906;2023-02-28T07:03:48;-3.40;99.90
33368;DHT22;19724;51.114;13.906;2023-02-28T07:06:21;-3.30;99.90
33368;DHT22;19724;51.114;13.906;2023-02-28T07:08:48;-3.20;99.90
33368;DHT22;19724;51.114;13.906;2023-02-28T07:11:14;-3.00;99.90
33368;DHT22;19724;51.114;13.906;2023-02-28T07:13:39;-3.10;99.90
33368;DHT22;19724;51.114;13.906;2023-02-28T07:16:07;-3.00;99.90
33368;DHT22;19724;51.114;13.906;2023-02-28T07:18:35;-2.90;99.90
33368;DHT22;19724;51.114;13.906;2023-02-28T07:21:05;-2.70;99.90
33368;DHT22;19724;51.114;13.906;2023-02-28T07:23:32;-2.70;99.90
33368;DHT22;19724;51.114;13.906;2023-02-28T07:25:58;-2.50;99.90
33368;DHT22;19724;51.114;13.906;2023-02-28T07:28:24;-2.30;99.90
33368;DHT22;19724;51.114;13.906;2023-02-28T07:30:49;-2.40;99.90
33368;DHT22;19724;51.114;13.906;2023-02-28T07:33:15;-2.30;99.90
33368;DHT22;19724;51.114;13.906;2023-02-28T07:35:41;-2.10;99.90
33368;DHT22;19724;51.114;13.906;2023-02-28T07:38:07;-2.00;99.90
33368;DHT22;19724;51.114;13.906;2023-02-28T07:40:36;-1.90;99.90
33368;DHT22;19724;51.114;13.906;2023-02-28T07:43:02;-1.80;99.90
33368;DHT22;19724;51.114;13.906;2023-02-28T07:45:28;-1.70;99.90
33368;DHT22;19724;51.114;13.906;2023-02-28T07:47:55;-1.60;99.90
33368;DHT22;19724;51.114;13.906;2023-02-28T07:50:21;-1.50;99.90
33368;DHT22;19724;51.114;13.906;2023-02-28T07:52:46;-1.40;99.90
33368;DHT22;19724;51.114;13.906;2023-02-28T07:55:12;-1.30;99.90
33368;DHT22;19724;51.114;13.906;2023-02-28T07:57:39;-1.30;99.90
33368;DHT22;19724;51.114;13.906;2023-02-28T08:00:06;-1.20;99.90
33368;DHT22;19724;51.114;13.906;2023-02-28T08:02:31;-1.10;99.90
33368;DHT22;19724;51.114;13.906;2023-02-28T08:04:57;-1.00;99.90
33368;DHT22;19724;51.114;13.906;2023-02-28T08:07:22;-0.90;99.90
33368;DHT22;19724;51.114;13.906;2023-02-28T08:09:48;-0.80;99.90
33368;DHT22;19724;51.114;13.906;2023-02-28T08:12:13;-0.80;99.90
33368;DHT22;19724;51.114;13.906;2023-02-28T08:14:40;-0.70;99.90
33368;DHT22;19724;51.114;13.906;2023-02-28T08:17:05;-0.60;99.90
33368;DHT22;19724;51.114;13.906;2023-02-28T08:19:31;-0.50;99.90
33368;DHT22;19724;51.114;13.906;2023-02-28T08:21:57;-0.40;99.90
33368;DHT22;19724;51.114;13.906;2023-02-28T08:24:23;-0.30;99.90
33368;DHT22;19724;51.114;13.906;2023-02-28T08:26:49;-0.30;99.90
33368;DHT22;19724;51.114;13.906;2023-02-28T08:29:15;-0.10;99.90
33368;DHT22;19724;51.114;13.906;2023-02-28T08:31:41;-0.10;99.90
33368;DHT22;19724;51.114;13.906;2023-02-28T08:34:07;0.00;99.90
33368;DHT22;19724;51.114;13.906;2023-02-28T08:36:33;0.10;99.90
33368;DHT22;19724;51.114;13.906;2023-02-28T08:38:59;0.10;99.90
33368;DHT22;19724;51.114;13.906;2023-02-28T08:41:25;0.20;99.90
33368;DHT22;19724;51.114;13.906;2023-02-28T08:43:51;0.30;99.90
33368;DHT22;19724;51.114;13.906;2023-02-28T08:46:16;0.30;99.90
33368;DHT22;19724;51.114;13.906;2023-02-28T08:48:42;0.30;99.90
33368;DHT22;19724;51.114;13.906;2023-02-28T08:51:12;0.30;99.90
33368;DHT22;19724;51.114;13.906;2023-02-28T08:53:39;0.40;99.90
33368;DHT22;19724;51.114;13.906;2023-02-28T08:56:11;0.40;99.90
33368;DHT22;19724;51.114;13.906;2023-02-28T08:58:37;0.50;99.90
33368;DHT22;19724;51.114;13.906;2023-02-28T09:01:23;0.50;99.90
33368;DHT22;19724;51.114;13.906;2023-02-28T09:03:50;0.60;99.90
33368;DHT22;19724;51.114;13.906;2023-02-28T09:06:18;0.60;99.90
33368;DHT22;19724;51.114;13.906;2023-02-28T09:08:44;0.70;99.90
33368;DHT22;19724;51.114;13.906;2023-02-28T09:11:10;0.70;99.90
33368;DHT22;19724;51.114;13.906;2023-02-28T09:13:36;0.80;99.90
33368;DHT22;19724;51.114;13.906;2023-02-28T09:16:04;0.80;99.90
33368;DHT22;19724;51.114;13.906;2023-02-28T09:18:30;0.90;99.90
33368;DHT22;19724;51.114;13.906;2023-02-28T09:20:56;1.00;99.90
33368;DHT22;19724;51.114;13.906;2023-02-28T09:23:23;1.10;99.90
33368;DHT22;19724;51.114;13.906;2023-02-28T09:25:52;1.20;99.90
33368;DHT22;19724;51.114;13.906;2023-02-28T09:28:18;1.40;99.90
33368;DHT22;19724;51.114;13.906;2023-02-28T09:30:46;1.60;99.90
33368;DHT22;19724;51.114;13.906;2023-02-28T09:33:12;1.70;99.90
33368;DHT22;19724;51.114;13.906;2023-02-28T09:35:38;2.00;99.90
33368;DHT22;19724;51.114;13.906;2023-02-28T09:38:04;2.10;99.90
33368;DHT22;19724;51.114;13.906;2023-02-28T09:40:30;2.40;99.90
33368;DHT22;19724;51.114;13.906;2023-02-28T09:42:57;2.70;99.90
33368;DHT22;19724;51.114;13.906;2023-02-28T09:45:31;3.00;99.90
33368;DHT22;19724;51.114;13.906;2023-02-28T09:48:12;3.30;99.90
33368;DHT22;19724;51.114;13.906;2023-02-28T09:51:12;3.40;99.90
33368;DHT22;19724;51.114;13.906;2023-02-28T09:53:35;3.60;99.90
33368;DHT22;19724;51.114;13.906;2023-02-28T09:56:22;3.80;99.90
33368;DHT22;19724;51.114;13.906;2023-02-28T09:59:10;4.20;99.90
33368;DHT22;19724;51.114;13.906;2023-02-28T10:07:06;5.10;99.90
33368;DHT22;19724;51.114;13.906;2023-02-28T10:09:45;5.40;99.90
33368;DHT22;19724;51.114;13.906;2023-02-28T10:12:12;5.70;99.90
33368;DHT22;19724;51.114;13.906;2023-02-28T10:14:41;5.90;99.90
33368;DHT22;19724;51.114;13.906;2023-02-28T10:17:26;5.80;99.90
33368;DHT22;19724;51.114;13.906;2023-02-28T10:20:00;5.70;99.90
33368;DHT22;19724;51.114;13.906;2023-02-28T10:25:20;5.00;99.90
33368;DHT22;19724;51.114;13.906;2023-02-28T10:27:46;4.70;99.90
33368;DHT22;19724;51.114;13.906;2023-02-28T10:30:12;4.50;99.90
33368;DHT22;19724;51.114;13.906;2023-02-28T10:32:48;4.40;99.90
33368;DHT22;19724;51.114;13.906;2023-02-28T10:35:23;4.30;99.90
33368;DHT22;19724;51.114;13.906;2023-02-28T10:37:57;4.30;99.90
33368;DHT22;19724;51.114;13.906;2023-02-28T10:40:26;4.30;99.90
33368;DHT22;19724;51.114;13.906;2023-02-28T10:43:00;4.20;99.90
33368;DHT22;19724;51.114;13.906;2023-02-28T10:45:29;4.20;99.90
33368;DHT22;19724;51.114;13.906;2023-02-28T10:47:58;4.20;99.90
33368;DHT22;19724;51.114;13.906;2023-02-28T10:50:43;4.30;99.90
33368;DHT22;19724;51.114;13.906;2023-02-28T11:01:26;4.80;99.90
33368;DHT22;19724;51.114;13.906;2023-02-28T11:04:00;4.70;99.90
33368;DHT22;19724;51.114;13.906;2023-02-28T11:06:32;4.70;99.90
33368;DHT22;19724;51.114;13.906;2023-02-28T11:08:59;4.90;99.90
33368;DHT22;19724;51.114;13.906;2023-02-28T11:11:29;5.00;99.90
33368;DHT22;19724;51.114;13.906;2023-02-28T11:14:04;5.10;99.90
33368;DHT22;19724;51.114;13.906;2023-02-28T11:16:37;5.80;99.90
33368;DHT22;19724;51.114;13.906;2023-02-28T11:19:05;5.90;99.90
33368;DHT22;19724;51.114;13.906;2023-02-28T11:21:36;5.80;99.90
33368;DHT22;19724;51.114;13.906;2023-02-28T11:26:50;6.20;99.90
33368;DHT22;19724;51.114;13.906;2023-02-28T11:29:21;6.00;99.90
33368;DHT22;19724;51.114;13.906;2023-02-28T11:34:35;6.10;99.90
33368;DHT22;19724;51.114;13.906;2023-02-28T11:37:02;6.10;99.90
33368;DHT22;19724;51.114;13.906;2023-02-28T11:39:33;6.10;99.90
33368;DHT22;19724;51.114;13.906;2023-02-28T11:47:36;7.00;99.90
33368;DHT22;19724;51.114;13.906;2023-02-28T11:53:10;7.80;99.90
33368;DHT22;19724;51.114;13.906;2023-02-28T11:55:49;8.20;99.90
33368;DHT22;19724;51.114;13.906;2023-02-28T12:01:34;9.00;99.90
33368;DHT22;19724;51.114;13.906;2023-02-28T12:04:57;9.20;99.90
33368;DHT22;19724;51.114;13.906;2023-02-28T12:10:24;9.50;99.90
33368;DHT22;19724;51.114;13.906;2023-02-28T12:13:08;9.60;99.90
33368;DHT22;19724;51.114;13.906;2023-02-28T12:16:00;9.70;99.90
33368;DHT22;19724;51.114;13.906;2023-02-28T12:18:35;10.00;99.90
33368;DHT22;19724;51.114;13.906;2023-02-28T12:24:34;10.30;99.90
33368;DHT22;19724;51.114;13.906;2023-02-28T12:27:09;10.30;99.90
33368;DHT22;19724;51.114;13.906;2023-02-28T12:29:59;10.40;99.90
33368;DHT22;19724;51.114;13.906;2023-02-28T12:32:39;10.30;99.90
33368;DHT22;19724;51.114;13.906;2023-02-28T12:37:38;10.60;99.90
33368;DHT22;19724;51.114;13.906;2023-02-28T12:40:19;10.50;99.90
33368;DHT22;19724;51.114;13.906;2023-02-28T12:42:51;10.50;99.90
33368;DHT22;19724;51.114;13.906;2023-02-28T12:45:31;10.50;99.90
33368;DHT22;19724;51.114;13.906;2023-02-28T12:48:07;10.60;99.90
33368;DHT22;19724;51.114;13.906;2023-02-28T12:50:34;11.00;99.90
33368;DHT22;19724;51.114;13.906;2023-02-28T12:56:13;11.10;99.90
33368;DHT22;19724;51.114;13.906;2023-02-28T12:58:47;11.00;99.90
33368;DHT22;19724;51.114;13.906;2023-02-28T13:01:36;10.90;99.90
33368;DHT22;19724;51.114;13.906;2023-02-28T13:04:39;10.80;99.90
33368;DHT22;19724;51.114;13.906;2023-02-28T13:10:07;11.00;99.90
33368;DHT22;19724;51.114;13.906;2023-02-28T13:12:34;11.10;99.90
33368;DHT22;19724;51.114;13.906;2023-02-28T13:15:22;11.20;99.90
33368;DHT22;19724;51.114;13.906;2023-02-28T13:17:52;11.30;99.90
33368;DHT22;19724;51.114;13.906;2023-02-28T13:20:26;11.10;99.90
33368;DHT22;19724;51.114;13.906;2023-02-28T13:22:55;11.10;99.90
33368;DHT22;19724;51.114;13.906;2023-02-28T13:27:47;11.00;99.90
33368;DHT22;19724;51.114;13.906;2023-02-28T13:34:04;11.20;99.90
33368;DHT22;19724;51.114;13.906;2023-02-28T13:38:55;11.70;99.90
33368;DHT22;19724;51.114;13.906;2023-02-28T13:44:21;11.50;99.90
33368;DHT22;19724;51.114;13.906;2023-02-28T13:49:27;11.90;99.90
33368;DHT22;19724;51.114;13.906;2023-02-28T13:55:06;11.80;99.90
33368;DHT22;19724;51.114;13.906;2023-02-28T14:06:28;11.70;99.90
33368;DHT22;19724;51.114;13.906;2023-02-28T14:11:40;12.00;99.90
33368;DHT22;19724;51.114;13.906;2023-02-28T14:14:08;12.10;99.90
33368;DHT22;19724;51.114;13.906;2023-02-28T14:16:45;12.20;99.90
33368;DHT22;19724;51.114;13.906;2023-02-28T14:19:26;12.20;99.90
33368;DHT22;19724;51.114;13.906;2023-02-28T14:27:36;11.60;99.90
33368;DHT22;19724;51.114;13.906;2023-02-28T14:30:15;11.60;99.90
33368;DHT22;19724;51.114;13.906;2023-02-28T14:33:04;11.60;99.90
33368;DHT22;19724;51.114;13.906;2023-02-28T14:38:23;11.40;99.90
33368;DHT22;19724;51.114;13.906;2023-02-28T14:40:52;10.90;99.90
33368;DHT22;19724;51.114;13.906;2023-02-28T14:43:24;10.90;99.90
33368;DHT22;19724;51.114;13.906;2023-02-28T14:45:53;10.60;99.90
33368;DHT22;19724;51.114;13.906;2023-02-28T14:48:20;10.40;99.90
33368;DHT22;19724;51.114;13.906;2023-02-28T14:50:52;10.30;99.90
33368;DHT22;19724;51.114;13.906;2023-02-28T14:53:20;10.20;99.90
33368;DHT22;19724;51.114;13.906;2023-02-28T14:55:47;10.00;99.90
33368;DHT22;19724;51.114;13.906;2023-02-28T14:58:24;10.10;99.90
33368;DHT22;19724;51.114;13.906;2023-02-28T15:00:52;10.10;99.90
33368;DHT22;19724;51.114;13.906;2023-02-28T15:03:28;10.00;99.90
33368;DHT22;19724;51.114;13.906;2023-02-28T15:05:58;9.90;99.90
33368;DHT22;19724;51.114;13.906;2023-02-28T15:08:24;9.70;99.90
33368;DHT22;19724;51.114;13.906;2023-02-28T15:10:56;9.40;99.90
33368;DHT22;19724;51.114;13.906;2023-02-28T15:13:24;9.30;99.90
33368;DHT22;19724;51.114;13.906;2023-02-28T15:16:04;9.00;99.90
33368;DHT22;19724;51.114;13.906;2023-02-28T15:18:48;8.80;99.90
33368;DHT22;19724;51.114;13.906;2023-02-28T15:21:17;8.80;99.90
33368;DHT22;19724;51.114;13.906;2023-02-28T15:24:20;8.90;99.90
33368;DHT22;19724;51.114;13.906;2023-02-28T15:26:43;9.00;99.90
33368;DHT22;19724;51.114;13.906;2023-02-28T15:29:20;9.00;99.90
33368;DHT22;19724;51.114;13.906;2023-02-28T15:31:54;8.80;99.90
33368;DHT22;19724;51.114;13.906;2023-02-28T15:34:27;8.70;99.90
33368;DHT22;19724;51.114;13.906;2023-02-28T15:36:53;8.50;99.90
33368;DHT22;19724;51.114;13.906;2023-02-28T15:39:24;8.20;99.90
33368;DHT22;19724;51.114;13.906;2023-02-28T15:41:52;8.10;99.90
33368;DHT22;19724;51.114;13.906;2023-02-28T15:44:34;7.90;99.90
33368;DHT22;19724;51.114;13.906;2023-02-28T15:47:12;7.80;99.90
33368;DHT22;19724;51.114;13.906;2023-02-28T15:49:53;7.60;99.90
33368;DHT22;19724;51.114;13.906;2023-02-28T15:52:29;7.30;99.90
33368;DHT22;19724;51.114;13.906;2023-02-28T15:54:59;7.20;99.90
33368;DHT22;19724;51.114;13.906;2023-02-28T15:57:32;6.90;99.90
33368;DHT22;19724;51.114;13.906;2023-02-28T16:00:00;6.70;99.90
33368;DHT22;19724;51.114;13.906;2023-02-28T16:02:32;6.60;99.90
33368;DHT22;19724;51.114;13.906;2023-02-28T16:07:44;6.40;99.90
33368;DHT22;19724;51.114;13.906;2023-02-28T16:10:12;6.30;99.90
33368;DHT22;19724;51.114;13.906;2023-02-28T16:12:39;6.20;99.90
33368;DHT22;19724;51.114;13.906;2023-02-28T16:15:18;6.00;99.90
33368;DHT22;19724;51.114;13.906;2023-02-28T16:17:44;6.00;99.90
33368;DHT22;19724;51.114;13.906;2023-02-28T16:20:20;5.90;99.90
33368;DHT22;19724;51.114;13.906;2023-02-28T16:22:46;5.90;99.90
33368;DHT22;19724;51.114;13.906;2023-02-28T16:25:16;5.80;99.90
33368;DHT22;19724;51.114;13.906;2023-02-28T16:27:43;5.60;99.90
33368;DHT22;19724;51.114;13.906;2023-02-28T16:30:18;5.50;99.90
33368;DHT22;19724;51.114;13.906;2023-02-28T16:32:44;5.40;99.90
33368;DHT22;19724;51.114;13.906;2023-02-28T16:35:11;5.20;99.90
33368;DHT22;19724;51.114;13.906;2023-02-28T16:37:37;5.10;99.90
33368;DHT22;19724;51.114;13.906;2023-02-28T16:40:03;5.00;99.90
33368;DHT22;19724;51.114;13.906;2023-02-28T16:42:28;4.80;99.90
33368;DHT22;19724;51.114;13.906;2023-02-28T16:44:56;4.60;99.90
33368;DHT22;19724;51.114;13.906;2023-02-28T16:47:21;4.40;99.90
33368;DHT22;19724;51.114;13.906;2023-02-28T16:49:47;4.40;99.90
33368;DHT22;19724;51.114;13.906;2023-02-28T16:52:13;4.20;99.90
33368;DHT22;19724;51.114;13.906;2023-02-28T16:54:41;4.00;99.90
33368;DHT22;19724;51.114;13.906;2023-02-28T16:57:15;3.90;99.90
33368;DHT22;19724;51.114;13.906;2023-02-28T16:59:42;3.80;99.90
33368;DHT22;19724;51.114;13.906;2023-02-28T17:02:12;3.60;99.90
33368;DHT22;19724;51.114;13.906;2023-02-28T17:04:38;3.60;99.90
33368;DHT22;19724;51.114;13.906;2023-02-28T17:07:03;3.50;99.90
33368;DHT22;19724;51.114;13.906;2023-02-28T17:09:30;3.40;99.90
33368;DHT22;19724;51.114;13.906;2023-02-28T17:12:01;3.20;99.90
33368;DHT22;19724;51.114;13.906;2023-02-28T17:14:26;3.10;99.90
33368;DHT22;19724;51.114;13.906;2023-02-28T17:16:52;2.90;99.90
33368;DHT22;19724;51.114;13.906;2023-02-28T17:19:17;2.90;99.90
33368;DHT22;19724;51.114;13.906;2023-02-28T17:21:44;2.80;99.90
33368;DHT22;19724;51.114;13.906;2023-02-28T17:24:11;2.80;99.90
33368;DHT22;19724;51.114;13.906;2023-02-28T17:26:39;2.70;99.90